createdAt,value
2024-01-24T00:00:06.735Z,99605.69
2024-01-24T00:01:14.659Z,99596.69
2024-01-24T00:02:16.573Z,99591.34
2024-01-24T00:03:18.476Z,99581.66
2024-01-24T00:04:21.607Z,99574.84
2024-01-24T00:05:23.575Z,99582.84
2024-01-24T00:06:25.392Z,99577.19
2024-01-24T00:07:27.742Z,99575.84
2024-01-24T00:08:29.464Z,99568.47
2024-01-24T00:09:32.647Z,99576.84
2024-01-24T00:10:34.478Z,99576.84
2024-01-24T00:11:36.977Z,99571.00
2024-01-24T00:12:38.994Z,99571.66
2024-01-24T00:13:41.152Z,99564.66
2024-01-24T00:14:43.091Z,99565.50
2024-01-24T00:15:47.423Z,99548.47
2024-01-24T00:16:49.284Z,99554.16
2024-01-24T00:17:52.300Z,99546.59
2024-01-24T00:18:54.139Z,99554.16
2024-01-24T00:19:58.221Z,99523.28
2024-01-24T00:21:01.239Z,99547.59
2024-01-24T00:22:04.244Z,99553.25
2024-01-24T00:23:06.219Z,99544.44
2024-01-24T00:24:08.286Z,99524.75
2024-01-24T00:25:10.132Z,99539.25
2024-01-24T00:26:11.893Z,99536.56
2024-01-24T00:27:16.161Z,99538.44
2024-01-24T00:28:18.418Z,99538.44
2024-01-24T00:29:20.240Z,99522.59
2024-01-24T00:30:22.157Z,99538.59
2024-01-24T00:31:24.174Z,99534.25
2024-01-24T00:32:28.589Z,99537.94
2024-01-24T00:33:34.158Z,99536.94
2024-01-24T00:34:36.111Z,99534.25
2024-01-24T00:35:39.598Z,99529.91
2024-01-24T00:36:41.401Z,99529.25
2024-01-24T00:37:43.368Z,99529.09
2024-01-24T00:38:45.334Z,99524.75
2024-01-24T00:39:48.968Z,99529.25
2024-01-24T00:40:50.880Z,99518.56
2024-01-24T00:41:54.291Z,99511.41
2024-01-24T00:42:59.209Z,99515.59
2024-01-24T00:44:00.975Z,99508.38
2024-01-24T00:45:02.764Z,99508.91
2024-01-24T00:46:04.636Z,99509.91
2024-01-24T00:47:07.349Z,99506.38
2024-01-24T00:48:09.763Z,99501.22
2024-01-24T00:49:13.731Z,99505.72
2024-01-24T00:50:15.709Z,99502.03
2024-01-24T00:51:17.696Z,99499.56
2024-01-24T00:52:19.562Z,99504.91
2024-01-24T00:53:22.449Z,99493.25
2024-01-24T00:54:24.369Z,99499.56
2024-01-24T00:55:28.291Z,99496.56
2024-01-24T00:56:30.542Z,99508.56
2024-01-24T00:57:32.890Z,99511.41
2024-01-24T00:58:34.849Z,99513.91
2024-01-24T00:59:36.582Z,99510.94
2024-01-24T01:00:38.732Z,99510.59
2024-01-24T01:01:40.552Z,99501.91
2024-01-24T01:02:44.355Z,99497.75
2024-01-24T01:03:46.267Z,99503.41
2024-01-24T01:04:48.057Z,99499.06
2024-01-24T01:05:50.206Z,99500.25
2024-01-24T01:06:52.089Z,99487.91
2024-01-24T01:07:55.721Z,99482.91
2024-01-24T01:08:57.569Z,99495.72
2024-01-24T01:09:59.250Z,99494.06
2024-01-24T01:11:01.375Z,99499.41
2024-01-24T01:12:03.958Z,99498.59
2024-01-24T01:13:05.930Z,99492.59
2024-01-24T01:14:07.759Z,99495.06
2024-01-24T01:15:09.675Z,99489.72
2024-01-24T01:16:11.381Z,99491.59
2024-01-24T01:17:13.216Z,99490.72
2024-01-24T01:18:15.044Z,99488.91
2024-01-24T01:19:16.872Z,99481.06
2024-01-24T01:20:21.518Z,99485.56
2024-01-24T01:21:23.335Z,99475.56
2024-01-24T01:22:25.235Z,99474.72
2024-01-24T01:23:27.267Z,99465.22
2024-01-24T01:24:29.017Z,99466.88
2024-01-24T01:25:30.738Z,99461.03
2024-01-24T01:26:34.980Z,99466.22
2024-01-24T01:27:36.774Z,99465.22
2024-01-24T01:28:38.616Z,99470.56
2024-01-24T01:29:40.564Z,99472.38
2024-01-24T01:30:42.254Z,99463.56
2024-01-24T01:31:44.112Z,99452.56
2024-01-24T01:32:45.990Z,99456.56
2024-01-24T01:33:47.851Z,99456.72
2024-01-24T01:34:49.653Z,99441.88
2024-01-24T01:35:51.775Z,99445.22
2024-01-24T01:36:54.402Z,99445.22
2024-01-24T01:37:56.124Z,99439.88
2024-01-24T01:38:57.862Z,99443.34
2024-01-24T01:40:00.062Z,99438.38
2024-01-24T01:41:01.905Z,99437.19
2024-01-24T01:42:04.333Z,99429.34
2024-01-24T01:43:12.930Z,99413.69
2024-01-24T01:44:18.564Z,99426.53
2024-01-24T01:45:21.903Z,99423.84
2024-01-24T01:46:23.836Z,99424.00
2024-01-24T01:47:26.248Z,99415.19
2024-01-24T01:48:29.090Z,99410.84
2024-01-24T01:49:31.269Z,99416.19
2024-01-24T01:50:33.356Z,99409.16
2024-01-24T01:51:36.128Z,99396.50
2024-01-24T01:52:41.020Z,99399.47
2024-01-24T01:53:42.796Z,99399.31
2024-01-24T01:54:45.653Z,99393.13
2024-01-24T01:55:47.577Z,99390.66
2024-01-24T01:56:49.447Z,99387.13
2024-01-24T01:57:51.896Z,99384.47
2024-01-24T01:58:54.199Z,99379.13
2024-01-24T01:59:55.958Z,99372.13
2024-01-24T02:00:57.862Z,99350.50
2024-01-24T02:02:02.120Z,99375.78
2024-01-24T02:03:04.045Z,99365.13
2024-01-24T02:04:06.480Z,99336.84
2024-01-24T02:05:08.423Z,99368.78
2024-01-24T02:06:10.367Z,99374.13
2024-01-24T02:07:12.209Z,99331.19
2024-01-24T02:08:14.040Z,99362.13
2024-01-24T02:09:18.242Z,99355.13
2024-01-24T02:10:19.971Z,99359.13
2024-01-24T02:11:22.313Z,99358.13
2024-01-24T02:12:24.087Z,99351.13
2024-01-24T02:13:31.409Z,99347.78
2024-01-24T02:14:33.211Z,99344.78
2024-01-24T02:15:34.958Z,99333.44
2024-01-24T02:16:36.774Z,99335.09
2024-01-24T02:17:38.833Z,99332.63
2024-01-24T02:18:42.808Z,99327.44
2024-01-24T02:19:44.700Z,99329.94
2024-01-24T02:20:48.532Z,99322.09
2024-01-24T02:21:50.408Z,99318.13
2024-01-24T02:22:52.248Z,99330.09
2024-01-24T02:23:55.369Z,99321.44
2024-01-24T02:24:57.175Z,99313.97
2024-01-24T02:25:59.060Z,99319.63
2024-01-24T02:27:00.839Z,99316.09
2024-01-24T02:28:02.645Z,99308.28
2024-01-24T02:29:05.341Z,99314.44
2024-01-24T02:30:12.888Z,99309.09
2024-01-24T02:31:14.639Z,99289.16
2024-01-24T02:32:16.750Z,99305.63
2024-01-24T02:33:18.739Z,99308.28
2024-01-24T02:34:20.619Z,99304.78
2024-01-24T02:35:25.683Z,99289.16
2024-01-24T02:36:27.436Z,99289.75
2024-01-24T02:37:29.133Z,99287.09
2024-01-24T02:38:33.212Z,99287.44
2024-01-24T02:39:34.984Z,99267.44
2024-01-24T02:40:38.005Z,99287.09
2024-01-24T02:41:43.540Z,99263.63
2024-01-24T02:42:45.368Z,99281.94
2024-01-24T02:43:48.606Z,99271.78
2024-01-24T02:44:50.664Z,99276.13
2024-01-24T02:45:53.092Z,99270.41
2024-01-24T02:46:57.752Z,99268.59
2024-01-24T02:47:59.572Z,99257.63
2024-01-24T02:49:02.427Z,99262.41
2024-01-24T02:50:05.732Z,99257.28
2024-01-24T02:51:07.435Z,99262.59
2024-01-24T02:52:09.145Z,99264.44
2024-01-24T02:53:10.862Z,99256.63
2024-01-24T02:54:15.118Z,99258.44
2024-01-24T02:55:17.141Z,99254.75
2024-01-24T02:56:19.325Z,99246.94
2024-01-24T02:57:21.134Z,99242.41
2024-01-24T02:58:22.981Z,99242.78
2024-01-24T02:59:26.958Z,99235.78
2024-01-24T03:00:30.337Z,99235.41
2024-01-24T03:01:32.179Z,99234.41
2024-01-24T03:02:36.826Z,99227.56
2024-01-24T03:03:42.245Z,99226.75
2024-01-24T03:04:44.251Z,99230.09
2024-01-24T03:05:46.109Z,99233.75
2024-01-24T03:06:48.050Z,99228.41
2024-01-24T03:07:49.787Z,99225.75
2024-01-24T03:08:56.215Z,99225.09
2024-01-24T03:09:58.100Z,99218.75
2024-01-24T03:10:59.843Z,99215.06
2024-01-24T03:12:01.710Z,99210.75
2024-01-24T03:13:04.439Z,99199.94
2024-01-24T03:14:06.263Z,99209.91
2024-01-24T03:15:08.384Z,99206.41
2024-01-24T03:16:10.163Z,99203.75
2024-01-24T03:17:11.915Z,99201.09
2024-01-24T03:18:13.876Z,99198.41
2024-01-24T03:19:18.009Z,99193.88
2024-01-24T03:20:19.747Z,99186.88
2024-01-24T03:21:21.584Z,99186.88
2024-01-24T03:22:26.447Z,99174.44
2024-01-24T03:23:29.491Z,99186.72
2024-01-24T03:24:31.291Z,99186.72
2024-01-24T03:25:33.063Z,99182.41
2024-01-24T03:26:36.726Z,99172.06
2024-01-24T03:27:41.042Z,99178.06
2024-01-24T03:28:43.903Z,99169.75
2024-01-24T03:29:45.630Z,99178.88
2024-01-24T03:30:49.107Z,99173.53
2024-01-24T03:31:51.038Z,99174.41
2024-01-24T03:32:55.231Z,99165.72
2024-01-24T03:33:57.112Z,99171.72
2024-01-24T03:35:02.599Z,99136.81
2024-01-24T03:36:05.069Z,99167.41
2024-01-24T03:37:06.896Z,99162.06
2024-01-24T03:38:10.529Z,99168.41
2024-01-24T03:39:14.891Z,99162.22
2024-01-24T03:40:16.899Z,99173.75
2024-01-24T03:41:18.601Z,99174.56
2024-01-24T03:42:20.404Z,99172.06
2024-01-24T03:43:24.392Z,99157.59
2024-01-24T03:44:26.305Z,99148.94
2024-01-24T03:45:28.099Z,99166.75
2024-01-24T03:46:29.813Z,99162.56
2024-01-24T03:47:31.851Z,99158.09
2024-01-24T03:48:33.794Z,99152.75
2024-01-24T03:49:35.891Z,99156.06
2024-01-24T03:50:39.231Z,99150.72
2024-01-24T03:51:41.157Z,99153.56
2024-01-24T03:52:42.970Z,99152.56
2024-01-24T03:53:44.759Z,99140.41
2024-01-24T03:54:46.521Z,99149.06
2024-01-24T03:55:48.250Z,99142.88
2024-01-24T03:56:50.647Z,99134.22
2024-01-24T03:57:52.469Z,99135.88
2024-01-24T03:58:54.259Z,99136.72
2024-01-24T03:59:56.050Z,99126.06
2024-01-24T04:00:57.874Z,99131.41
2024-01-24T04:01:59.926Z,99126.59
2024-01-24T04:03:01.679Z,99125.41
2024-01-24T04:04:06.803Z,99120.72
2024-01-24T04:05:09.184Z,99111.56
2024-01-24T04:06:10.908Z,99126.06
2024-01-24T04:07:12.863Z,99108.25
2024-01-24T04:08:15.183Z,99118.88
2024-01-24T04:09:17.004Z,99108.09
2024-01-24T04:10:18.865Z,99115.38
2024-01-24T04:11:20.691Z,99114.53
2024-01-24T04:12:22.471Z,99108.38
2024-01-24T04:13:25.306Z,99101.75
2024-01-24T04:14:27.129Z,99105.72
2024-01-24T04:15:28.842Z,99106.72
2024-01-24T04:16:30.746Z,99110.22
2024-01-24T04:17:32.667Z,99105.88
2024-01-24T04:18:35.053Z,99104.22
2024-01-24T04:19:36.960Z,99107.09
2024-01-24T04:20:38.807Z,99093.91
2024-01-24T04:21:47.108Z,99103.41
2024-01-24T04:22:49.350Z,99097.72
2024-01-24T04:23:51.066Z,99091.53
2024-01-24T04:24:52.830Z,99092.38
2024-01-24T04:25:54.544Z,99098.72
2024-01-24T04:26:56.527Z,99082.06
2024-01-24T04:27:58.763Z,99079.09
2024-01-24T04:29:03.257Z,99083.72
2024-01-24T04:30:06.545Z,99082.88
2024-01-24T04:31:08.406Z,99079.19
2024-01-24T04:32:10.858Z,99089.06
2024-01-24T04:33:14.686Z,99074.88
2024-01-24T04:34:18.490Z,99070.38
2024-01-24T04:35:21.219Z,99070.38
2024-01-24T04:36:22.982Z,99061.53
2024-01-24T04:37:25.155Z,99063.38
2024-01-24T04:38:27.320Z,99056.09
2024-01-24T04:39:29.144Z,99059.06
2024-01-24T04:40:30.892Z,99058.22
2024-01-24T04:41:32.697Z,99058.22
2024-01-24T04:42:34.513Z,99065.22
2024-01-24T04:43:37.514Z,99043.78
2024-01-24T04:44:39.250Z,99037.44
2024-01-24T04:45:41.311Z,99051.88
2024-01-24T04:46:43.036Z,99052.88
2024-01-24T04:47:47.080Z,99058.22
2024-01-24T04:48:49.661Z,99055.38
2024-01-24T04:49:51.729Z,99054.53
2024-01-24T04:50:53.711Z,99054.72
2024-01-24T04:51:55.724Z,99050.41
2024-01-24T04:52:57.700Z,99042.41
2024-01-24T04:53:59.416Z,99044.88
2024-01-24T04:55:01.354Z,99039.72
2024-01-24T04:56:03.544Z,99040.53
2024-01-24T04:57:05.598Z,99045.06
2024-01-24T04:58:07.359Z,99035.41
2024-01-24T04:59:09.184Z,99033.78
2024-01-24T05:00:13.299Z,99047.72
2024-01-24T05:01:15.428Z,99042.41
2024-01-24T05:02:17.423Z,99031.72
2024-01-24T05:03:19.226Z,99032.75
2024-01-24T05:04:21.062Z,99038.88
2024-01-24T05:05:22.842Z,99036.41
2024-01-24T05:06:24.807Z,99025.75
2024-01-24T05:07:26.737Z,99031.72
2024-01-24T05:08:28.492Z,99029.22
2024-01-24T05:09:30.282Z,99026.56
2024-01-24T05:10:32.245Z,99026.56
2024-01-24T05:11:33.976Z,99028.41
2024-01-24T05:12:35.743Z,99018.56
2024-01-24T05:13:38.088Z,99015.44
2024-01-24T05:14:39.799Z,99010.44
2024-01-24T05:15:41.590Z,99020.41
2024-01-24T05:16:43.604Z,99021.22
2024-01-24T05:17:45.467Z,99015.44
2024-01-24T05:18:47.594Z,99006.41
2024-01-24T05:19:50.109Z,99008.06
2024-01-24T05:20:51.907Z,99011.56
2024-01-24T05:21:53.936Z,99008.88
2024-01-24T05:22:55.952Z,99009.72
2024-01-24T05:23:57.686Z,99003.56
2024-01-24T05:25:00.082Z,99000.06
2024-01-24T05:26:04.955Z,98999.06
2024-01-24T05:27:06.938Z,98995.53
2024-01-24T05:28:09.556Z,99002.75
2024-01-24T05:29:11.402Z,98996.75
2024-01-24T05:30:20.245Z,98993.41
2024-01-24T05:31:32.142Z,99004.84
2024-01-24T05:32:34.752Z,98994.38
2024-01-24T05:33:36.862Z,99000.72
2024-01-24T05:34:38.746Z,99000.06
2024-01-24T05:35:40.595Z,98991.22
2024-01-24T05:36:42.421Z,98994.91
2024-01-24T05:37:47.259Z,98986.63
2024-01-24T05:38:49.038Z,98988.56
2024-01-24T05:39:53.101Z,98991.41
2024-01-24T05:40:54.843Z,98985.88
2024-01-24T05:41:56.657Z,98982.41
2024-01-24T05:42:58.482Z,98978.09
2024-01-24T05:44:00.368Z,98971.09
2024-01-24T05:45:02.100Z,98965.75
2024-01-24T05:46:04.071Z,98965.75
2024-01-24T05:47:06.400Z,98960.09
2024-01-24T05:48:09.470Z,98972.75
2024-01-24T05:49:11.493Z,98956.75
2024-01-24T05:50:14.529Z,98948.91
2024-01-24T05:51:16.282Z,98948.72
2024-01-24T05:52:18.198Z,98946.06
2024-01-24T05:53:20.026Z,98948.72
2024-01-24T05:54:23.109Z,98941.25
2024-01-24T05:55:25.183Z,98946.41
2024-01-24T05:56:27.150Z,98948.72
2024-01-24T05:57:28.959Z,98949.75
2024-01-24T05:58:30.760Z,98932.78
2024-01-24T05:59:34.502Z,98935.56
2024-01-24T06:00:37.600Z,98937.38
2024-01-24T06:01:39.480Z,98945.22
2024-01-24T06:02:41.864Z,98932.25
2024-01-24T06:03:43.720Z,98943.56
2024-01-24T06:04:45.688Z,98951.56
2024-01-24T06:05:47.558Z,98953.38
2024-01-24T06:06:49.585Z,98945.38
2024-01-24T06:07:51.649Z,98946.06
2024-01-24T06:08:53.850Z,98921.81
2024-01-24T06:09:55.948Z,98949.75
2024-01-24T06:10:57.839Z,98948.53
2024-01-24T06:12:00.257Z,98947.06
2024-01-24T06:13:01.988Z,98950.03
2024-01-24T06:14:04.365Z,98955.16
2024-01-24T06:15:08.995Z,98948.66
2024-01-24T06:16:11.052Z,98961.63
2024-01-24T06:17:12.871Z,98961.44
2024-01-24T06:18:14.708Z,98960.25
2024-01-24T06:19:19.068Z,98963.56
2024-01-24T06:20:20.882Z,98953.38
2024-01-24T06:21:22.898Z,98965.50
2024-01-24T06:22:24.697Z,98957.13
2024-01-24T06:23:26.713Z,98965.59
2024-01-24T06:24:28.708Z,98949.22
2024-01-24T06:25:30.875Z,98944.41
2024-01-24T06:26:32.583Z,98951.97
2024-01-24T06:27:35.888Z,98946.63
2024-01-24T06:28:38.247Z,98950.41
2024-01-24T06:30:16.408Z,98948.59
2024-01-24T06:31:03.378Z,98937.22
2024-01-24T06:32:09.407Z,98927.28
2024-01-24T06:33:11.235Z,98931.34
2024-01-24T06:34:13.720Z,98940.00
2024-01-24T06:35:15.628Z,98925.34
2024-01-24T06:36:21.233Z,98934.91
2024-01-24T06:37:22.990Z,98933.53
2024-01-24T06:38:24.754Z,98929.88
2024-01-24T06:39:27.130Z,98927.84
2024-01-24T06:40:29.128Z,98933.66
2024-01-24T06:41:31.171Z,98927.84
2024-01-24T06:42:32.921Z,98929.59
2024-01-24T06:43:36.594Z,98920.72
2024-01-24T06:44:38.336Z,98921.03
2024-01-24T06:45:40.073Z,98925.97
2024-01-24T06:46:46.069Z,98922.28
2024-01-24T06:47:47.924Z,98922.72
2024-01-24T06:48:50.892Z,98913.66
2024-01-24T06:49:53.222Z,98918.88
2024-01-24T06:50:57.943Z,98918.66
2024-01-24T06:51:59.672Z,98912.13
2024-01-24T06:53:01.503Z,98904.50
2024-01-24T06:54:03.654Z,98917.91
2024-01-24T06:55:05.860Z,98915.06
2024-01-24T06:56:07.858Z,98910.91
2024-01-24T06:57:09.631Z,98913.88
2024-01-24T06:58:11.435Z,98910.97
2024-01-24T06:59:13.244Z,98902.97
2024-01-24T07:00:15.553Z,98902.78
2024-01-24T07:01:17.501Z,98908.94
2024-01-24T07:02:19.284Z,98902.59
2024-01-24T07:03:23.462Z,98911.25
2024-01-24T07:04:26.637Z,98897.88
2024-01-24T07:05:28.710Z,98882.59
2024-01-24T07:06:30.645Z,98895.03
2024-01-24T07:07:33.278Z,98897.69
2024-01-24T07:08:38.727Z,98896.69
2024-01-24T07:09:41.400Z,98899.16
2024-01-24T07:10:47.102Z,98890.31
2024-01-24T07:11:48.877Z,98883.50
2024-01-24T07:12:50.976Z,98889.28
2024-01-24T07:13:52.862Z,98895.44
2024-01-24T07:14:56.059Z,98890.94
2024-01-24T07:15:57.974Z,98879.16
2024-01-24T07:16:59.866Z,98874.34
2024-01-24T07:18:01.626Z,98892.53
2024-01-24T07:19:05.877Z,98907.00
2024-01-24T07:20:08.517Z,98893.16
2024-01-24T07:21:11.098Z,98892.41
2024-01-24T07:22:12.929Z,98882.28
2024-01-24T07:23:14.827Z,98891.38
2024-01-24T07:24:16.750Z,98883.34
2024-01-24T07:25:22.310Z,98885.22
2024-01-24T07:26:24.312Z,98887.69
2024-01-24T07:27:26.100Z,98883.19
2024-01-24T07:28:30.472Z,98886.88
2024-01-24T07:29:32.546Z,98877.84
2024-01-24T07:30:34.333Z,98870.84
2024-01-24T07:31:36.112Z,98868.97
2024-01-24T07:32:41.126Z,98859.31
2024-01-24T07:33:43.319Z,98867.97
2024-01-24T07:34:45.256Z,98855.59
2024-01-24T07:35:47.269Z,98855.59
2024-01-24T07:36:49.912Z,98855.59
2024-01-24T07:37:52.373Z,98852.94
2024-01-24T07:38:54.448Z,98856.44
2024-01-24T07:39:56.398Z,98856.63
2024-01-24T07:40:58.253Z,98851.09
2024-01-24T07:42:00.022Z,98845.94
2024-01-24T07:43:01.869Z,98848.59
2024-01-24T07:44:03.829Z,98844.09
2024-01-24T07:45:06.042Z,98850.25
2024-01-24T07:46:08.067Z,98839.16
2024-01-24T07:47:09.934Z,98842.25
2024-01-24T07:48:15.768Z,98843.25
2024-01-24T07:49:18.953Z,98842.06
2024-01-24T07:50:21.209Z,98834.22
2024-01-24T07:51:23.406Z,98837.72
2024-01-24T07:52:32.472Z,98841.25
2024-01-24T07:53:43.511Z,98828.31
2024-01-24T07:54:46.076Z,98825.63
2024-01-24T07:55:55.774Z,98828.53
2024-01-24T07:57:05.073Z,98826.25
2024-01-24T07:58:07.261Z,98822.16
2024-01-24T07:59:09.527Z,98817.81
2024-01-24T08:00:18.127Z,98813.84
2024-01-24T08:01:22.081Z,98808.78
2024-01-24T08:02:24.712Z,98810.63
2024-01-24T08:03:26.558Z,98814.31
2024-01-24T08:04:28.573Z,98807.50
2024-01-24T08:05:31.157Z,98796.56
2024-01-24T08:06:33.223Z,98804.81
2024-01-24T08:07:38.039Z,98806.50
2024-01-24T08:08:40.330Z,98806.28
2024-01-24T08:09:42.097Z,98800.13
2024-01-24T08:10:44.336Z,98797.47
2024-01-24T08:11:48.188Z,98797.63
2024-01-24T08:12:53.806Z,98790.63
2024-01-24T08:13:55.778Z,98797.25
2024-01-24T08:14:57.518Z,98794.78
2024-01-24T08:15:59.454Z,98771.19
2024-01-24T08:17:06.860Z,98795.97
2024-01-24T08:18:09.364Z,98792.75
2024-01-24T08:19:11.347Z,98796.44
2024-01-24T08:20:13.209Z,98799.09
2024-01-24T08:21:16.066Z,98800.13
2024-01-24T08:22:17.839Z,98798.09
2024-01-24T08:23:20.912Z,98797.47
2024-01-24T08:24:24.978Z,98792.75
2024-01-24T08:25:27.846Z,98799.91
2024-01-24T08:26:29.887Z,98798.09
2024-01-24T08:27:31.770Z,98792.91
2024-01-24T08:28:33.585Z,98792.75
2024-01-24T08:29:37.793Z,98787.41
2024-01-24T08:30:40.114Z,98789.06
2024-01-24T08:31:42.433Z,98776.63
2024-01-24T08:32:44.416Z,98784.72
2024-01-24T08:33:50.195Z,98778.34
2024-01-24T08:34:53.743Z,98789.06
2024-01-24T08:35:55.619Z,98778.28
2024-01-24T08:36:57.455Z,98772.72
2024-01-24T08:37:59.285Z,98789.06
2024-01-24T08:39:01.253Z,98765.09
2024-01-24T08:40:04.094Z,98775.22
2024-01-24T08:41:05.960Z,98790.69
2024-01-24T08:42:08.194Z,98779.56
2024-01-24T08:43:10.131Z,98783.69
2024-01-24T08:44:11.939Z,98783.69
2024-01-24T08:45:16.551Z,98781.66
2024-01-24T08:46:20.220Z,98787.81
2024-01-24T08:47:22.321Z,98781.66
2024-01-24T08:48:26.350Z,98789.69
2024-01-24T08:49:28.297Z,98780.00
2024-01-24T08:50:30.055Z,98778.16
2024-01-24T08:51:32.989Z,98786.00
2024-01-24T08:52:37.260Z,98779.16
2024-01-24T08:53:39.131Z,98788.66
2024-01-24T08:54:45.065Z,98789.69
2024-01-24T08:55:47.657Z,98772.16
2024-01-24T08:56:49.573Z,98781.44
2024-01-24T08:57:52.142Z,98791.34
2024-01-24T08:58:54.072Z,98779.78
2024-01-24T08:59:56.140Z,98779.63
2024-01-24T09:01:00.344Z,98777.97
2024-01-24T09:02:06.191Z,98777.97
2024-01-24T09:03:10.810Z,98788.28
2024-01-24T09:04:13.633Z,98773.00
2024-01-24T09:05:19.873Z,98775.09
2024-01-24T09:06:23.101Z,98782.09
2024-01-24T09:07:25.181Z,98771.34
2024-01-24T09:08:27.099Z,98777.13
2024-01-24T09:09:31.960Z,98785.78
2024-01-24T09:10:34.604Z,98783.94
2024-01-24T09:11:42.128Z,98783.09
2024-01-24T09:12:51.271Z,98788.91
2024-01-24T09:13:53.062Z,98784.56
2024-01-24T09:14:56.251Z,98788.28
2024-01-24T09:15:58.171Z,98780.00
2024-01-24T09:17:00.093Z,98786.63
2024-01-24T09:18:01.958Z,98787.63
2024-01-24T09:19:03.943Z,98780.44
2024-01-24T09:20:07.730Z,98777.97
2024-01-24T09:21:10.158Z,98778.59
2024-01-24T09:22:12.055Z,98770.75
2024-01-24T09:23:14.434Z,98768.47
2024-01-24T09:24:16.831Z,98763.56
2024-01-24T09:25:20.424Z,98758.00
2024-01-24T09:26:23.081Z,98771.59
2024-01-24T09:27:25.093Z,98763.38
2024-01-24T09:28:26.933Z,98775.09
2024-01-24T09:29:28.655Z,98769.72
2024-01-24T09:30:31.961Z,98764.34
2024-01-24T09:31:33.721Z,98771.59
2024-01-24T09:32:35.546Z,98764.38
2024-01-24T09:33:39.908Z,98765.22
2024-01-24T09:34:43.964Z,98756.38
2024-01-24T09:35:47.687Z,98762.56
2024-01-24T09:36:53.125Z,98766.88
2024-01-24T09:37:55.014Z,98759.88
2024-01-24T09:38:56.762Z,98765.22
2024-01-24T09:39:58.694Z,98759.03
2024-01-24T09:41:01.777Z,98754.28
2024-01-24T09:42:04.817Z,98751.81
2024-01-24T09:43:10.176Z,98749.97
2024-01-24T09:44:15.270Z,98722.50
2024-01-24T09:45:20.030Z,98755.16
2024-01-24T09:46:22.250Z,98757.84
2024-01-24T09:47:26.125Z,98735.75
2024-01-24T09:48:28.176Z,98757.84
2024-01-24T09:49:33.106Z,98749.19
2024-01-24T09:50:35.972Z,98739.06
2024-01-24T09:51:38.590Z,98751.66
2024-01-24T09:52:44.189Z,98747.16
2024-01-24T09:53:50.822Z,98747.78
2024-01-24T09:55:01.230Z,98750.44
2024-01-24T09:56:04.118Z,98741.41
2024-01-24T09:57:07.672Z,98750.44
2024-01-24T09:58:11.646Z,98738.50
2024-01-24T09:59:14.520Z,98743.06
2024-01-24T10:00:17.119Z,98745.09
2024-01-24T10:01:20.719Z,98745.91
2024-01-24T10:02:27.592Z,98740.31
2024-01-24T10:03:31.499Z,98743.44
2024-01-24T10:04:38.856Z,98741.41
2024-01-24T10:05:43.956Z,98746.75
2024-01-24T10:06:47.607Z,98742.22
2024-01-24T10:07:51.029Z,98744.06
2024-01-24T10:08:52.768Z,98744.88
2024-01-24T10:10:20.784Z,98745.78
2024-01-24T10:11:22.769Z,98753.81
2024-01-24T10:12:25.317Z,98745.34
2024-01-24T10:13:27.695Z,98750.06
2024-01-24T10:14:29.468Z,98744.69
2024-01-24T10:15:31.932Z,98740.38
2024-01-24T10:16:34.006Z,98748.41
2024-01-24T10:17:39.062Z,98742.81
2024-01-24T10:18:42.924Z,98746.75
2024-01-24T10:19:44.881Z,98744.69
2024-01-24T10:20:53.176Z,98738.09
2024-01-24T10:21:55.461Z,98728.44
2024-01-24T10:22:57.445Z,98744.69
2024-01-24T10:24:00.918Z,98743.06
2024-01-24T10:25:03.042Z,98746.53
2024-01-24T10:26:05.053Z,98732.53
2024-01-24T10:27:08.886Z,98743.06
2024-01-24T10:28:14.984Z,98743.06
2024-01-24T10:29:17.093Z,98734.41
2024-01-24T10:30:19.364Z,98738.50
2024-01-24T10:31:21.347Z,98741.19
2024-01-24T10:32:23.245Z,98741.19
2024-01-24T10:33:25.321Z,98711.66
2024-01-24T10:34:29.019Z,98748.19
2024-01-24T10:35:31.197Z,98735.66
2024-01-24T10:36:37.206Z,98739.34
2024-01-24T10:37:42.291Z,98737.31
2024-01-24T10:38:50.052Z,98734.00
2024-01-24T10:39:56.130Z,98736.28
2024-01-24T10:41:02.506Z,98738.97
2024-01-24T10:42:11.053Z,98734.44
2024-01-24T10:43:15.541Z,98742.25
2024-01-24T10:44:18.217Z,98744.09
2024-01-24T10:45:21.960Z,98736.28
2024-01-24T10:46:24.220Z,98738.97
2024-01-24T10:47:27.371Z,98738.97
2024-01-24T10:48:32.334Z,98737.94
2024-01-24T10:49:35.139Z,98737.94
2024-01-24T10:50:40.291Z,98730.94
2024-01-24T10:51:44.688Z,98728.06
2024-01-24T10:53:53.533Z,98731.56
2024-01-24T10:54:57.006Z,98734.44
2024-01-24T10:56:01.438Z,98734.25
2024-01-24T10:57:05.760Z,98733.41
2024-01-24T10:58:12.025Z,98736.06
2024-01-24T10:59:14.786Z,98734.63
2024-01-24T11:00:20.489Z,98734.25
2024-01-24T11:01:22.651Z,98735.09
2024-01-24T11:02:24.580Z,98734.25
2024-01-24T11:03:27.216Z,98736.91
2024-01-24T11:04:30.054Z,98721.66
2024-01-24T11:05:50.422Z,98729.91
2024-01-24T11:07:03.269Z,98732.03
2024-01-24T11:08:39.494Z,98736.56
2024-01-24T11:10:19.757Z,98723.22
2024-01-24T11:11:23.087Z,98710.63
2024-01-24T11:12:25.458Z,98727.72
2024-01-24T11:13:27.399Z,98732.44
2024-01-24T11:14:34.726Z,98726.84
2024-01-24T11:15:36.836Z,98732.81
2024-01-24T11:16:40.953Z,98717.75
2024-01-24T11:17:47.555Z,98730.53
2024-01-24T11:18:49.571Z,98736.53
2024-01-24T11:19:51.460Z,98729.53
2024-01-24T11:21:00.777Z,98733.63
2024-01-24T11:22:16.622Z,98734.88
2024-01-24T11:23:44.700Z,98731.22
2024-01-24T11:24:47.489Z,98736.34
2024-01-24T11:25:51.366Z,98729.75
2024-01-24T11:26:54.376Z,98730.16
2024-01-24T11:28:00.808Z,98734.69
2024-01-24T11:29:15.870Z,98730.78
2024-01-24T11:30:27.938Z,98731.63
2024-01-24T11:31:41.176Z,98728.72
2024-01-24T11:32:46.572Z,98732.44
2024-01-24T11:34:28.257Z,98737.63
2024-01-24T11:35:43.140Z,98731.47
2024-01-24T11:36:49.247Z,98734.31
2024-01-24T11:37:53.347Z,98735.56
2024-01-24T11:38:56.406Z,98731.81
2024-01-24T11:39:58.331Z,98735.31
2024-01-24T11:41:09.198Z,98731.19
2024-01-24T11:42:32.098Z,98733.06
2024-01-24T11:43:38.120Z,98734.09
2024-01-24T11:44:44.014Z,98728.72
2024-01-24T11:45:46.673Z,98730.78
2024-01-24T11:46:48.538Z,98722.75
2024-01-24T11:47:53.597Z,98732.03
2024-01-24T11:48:55.591Z,98738.19
2024-01-24T11:49:57.561Z,98732.81
2024-01-24T11:51:00.960Z,98739.41
2024-01-24T11:52:03.763Z,98735.91
2024-01-24T11:53:05.626Z,98734.88
2024-01-24T11:54:07.893Z,98736.53
2024-01-24T11:55:09.944Z,98729.69
2024-01-24T11:56:15.565Z,98729.88
2024-01-24T11:57:17.379Z,98746.19
2024-01-24T11:58:19.297Z,98743.53
2024-01-24T11:59:22.282Z,98741.88
2024-01-24T12:00:24.666Z,98740.22
2024-01-24T12:01:26.824Z,98743.75
2024-01-24T12:02:29.448Z,98752.56
2024-01-24T12:03:31.637Z,98748.88
2024-01-24T12:04:34.236Z,98728.59
2024-01-24T12:05:36.139Z,98758.53
2024-01-24T12:06:38.472Z,98753.41
2024-01-24T12:07:40.408Z,98747.22
2024-01-24T12:08:45.686Z,98746.19
2024-01-24T12:10:51.482Z,98759.19
2024-01-24T12:11:54.158Z,98761.22
2024-01-24T12:12:56.075Z,98760.19
2024-01-24T12:13:57.899Z,98761.84
2024-01-24T12:15:00.401Z,98742.44
2024-01-24T12:16:03.001Z,98758.38
2024-01-24T12:17:11.646Z,98763.72
2024-01-24T12:18:15.661Z,98765.38
2024-01-24T12:19:19.388Z,98767.03
2024-01-24T12:20:23.251Z,98753.19
2024-01-24T12:21:27.672Z,98767.03
2024-01-24T12:22:30.478Z,98766.19
2024-01-24T12:23:34.818Z,98762.88
2024-01-24T12:24:41.305Z,98764.91